createdAt,value
2022-12-19T00:00:08.501Z,89.20
2022-12-19T00:02:38.032Z,89.20
2022-12-19T00:05:01.303Z,89.10
2022-12-19T00:07:24.536Z,88.90
2022-12-19T00:09:47.791Z,89.00
2022-12-19T00:12:19.002Z,89.00
2022-12-19T00:14:44.043Z,89.20
2022-12-19T00:17:07.298Z,89.00
2022-12-19T00:19:30.841Z,88.90
2022-12-19T00:21:54.168Z,89.20
2022-12-19T00:24:21.472Z,89.30
2022-12-19T00:26:44.990Z,89.20
2022-12-19T00:29:14.254Z,89.60
2022-12-19T00:31:39.276Z,89.50
2022-12-19T00:34:03.951Z,89.30
2022-12-19T00:36:30.708Z,89.40
2022-12-19T00:38:57.004Z,89.40
2022-12-19T00:41:23.189Z,89.30
2022-12-19T00:43:47.292Z,89.40
2022-12-19T00:46:12.635Z,89.70
2022-12-19T00:48:38.444Z,89.70
2022-12-19T00:51:02.180Z,90.10
2022-12-19T00:53:25.449Z,90.10
2022-12-19T00:55:48.699Z,90.40
2022-12-19T00:58:11.990Z,90.30
2022-12-19T01:00:35.911Z,90.40
2022-12-19T01:02:59.687Z,90.60
2022-12-19T01:05:26.846Z,90.60
2022-12-19T01:07:50.903Z,90.80
2022-12-19T01:10:14.119Z,90.80
2022-12-19T01:12:48.703Z,90.90
2022-12-19T01:15:12.201Z,91.00
2022-12-19T01:17:38.685Z,91.20
2022-12-19T01:20:09.743Z,91.30
2022-12-19T01:22:34.341Z,91.50
2022-12-19T01:24:57.550Z,91.90
2022-12-19T01:27:20.826Z,91.90
2022-12-19T01:29:52.335Z,91.80
2022-12-19T01:32:16.190Z,91.50
2022-12-19T01:34:39.425Z,91.50
2022-12-19T01:37:02.684Z,91.80
2022-12-19T01:39:27.828Z,91.80
2022-12-19T01:41:54.218Z,91.80
2022-12-19T01:44:17.487Z,91.60
2022-12-19T01:46:45.145Z,91.60
2022-12-19T01:49:16.324Z,91.50
2022-12-19T01:51:46.372Z,91.40
2022-12-19T01:54:15.308Z,91.30
2022-12-19T01:56:43.932Z,91.40
2022-12-19T01:59:13.154Z,91.10
2022-12-19T02:01:51.652Z,91.20
2022-12-19T02:04:18.740Z,91.30
2022-12-19T02:06:44.007Z,91.30
2022-12-19T02:09:08.440Z,91.40
2022-12-19T02:11:35.066Z,91.30
2022-12-19T02:13:59.892Z,91.30
2022-12-19T02:16:38.224Z,91.30
2022-12-19T02:19:21.540Z,91.10
2022-12-19T02:21:56.509Z,91.30
2022-12-19T02:25:13.523Z,91.50
2022-12-19T02:28:19.200Z,91.50
2022-12-19T02:30:57.162Z,91.60
2022-12-19T02:33:33.777Z,91.60
2022-12-19T02:36:07.263Z,91.40
2022-12-19T02:38:40.255Z,91.30
2022-12-19T02:41:09.207Z,91.20
2022-12-19T02:43:37.758Z,91.30
2022-12-19T02:46:07.333Z,91.00
2022-12-19T02:48:32.890Z,91.00
2022-12-19T02:50:56.347Z,91.10
2022-12-19T02:53:23.660Z,91.10
2022-12-19T02:56:09.463Z,91.00
2022-12-19T02:59:04.184Z,90.80
2022-12-19T03:01:45.621Z,90.90
2022-12-19T03:04:21.626Z,91.10
2022-12-19T03:06:51.249Z,91.00
2022-12-19T03:09:21.413Z,90.70
2022-12-19T03:11:47.664Z,90.90
2022-12-19T03:14:16.111Z,90.80
2022-12-19T03:16:40.907Z,90.90
2022-12-19T03:19:04.552Z,90.70
2022-12-19T03:21:35.531Z,90.80
2022-12-19T03:24:00.027Z,90.80
2022-12-19T03:26:27.412Z,91.00
2022-12-19T03:28:55.194Z,90.80
2022-12-19T03:31:23.306Z,90.70
2022-12-19T03:33:49.597Z,90.90
2022-12-19T03:36:17.456Z,91.00
2022-12-19T03:38:41.702Z,90.90
2022-12-19T03:41:08.327Z,90.70
2022-12-19T03:43:31.245Z,91.00
2022-12-19T03:46:03.445Z,91.10
2022-12-19T03:48:32.165Z,90.60
2022-12-19T03:51:08.743Z,90.90
2022-12-19T03:53:45.594Z,91.00
2022-12-19T03:56:18.442Z,91.10
2022-12-19T03:58:47.990Z,91.50
2022-12-19T04:01:11.473Z,91.90
2022-12-19T04:03:34.882Z,92.30
2022-12-19T04:06:01.886Z,92.40
2022-12-19T04:08:26.466Z,92.70
2022-12-19T04:10:52.661Z,92.80
2022-12-19T04:13:21.149Z,92.90
2022-12-19T04:15:52.878Z,93.00
2022-12-19T04:18:18.448Z,92.90
2022-12-19T04:20:46.992Z,93.00
2022-12-19T04:23:19.306Z,93.10
2022-12-19T04:25:47.819Z,93.20
2022-12-19T04:28:19.875Z,93.40
2022-12-19T04:30:46.069Z,93.60
2022-12-19T04:33:09.605Z,93.80
2022-12-19T04:35:32.938Z,93.80
2022-12-19T04:37:56.269Z,93.90
2022-12-19T04:40:20.953Z,94.10
2022-12-19T04:42:44.445Z,94.10
2022-12-19T04:45:09.434Z,94.20
2022-12-19T04:47:32.723Z,94.10
2022-12-19T04:49:55.978Z,94.20
2022-12-19T04:52:19.224Z,94.30
2022-12-19T04:54:42.579Z,94.30
2022-12-19T04:57:07.593Z,94.30
2022-12-19T04:59:31.602Z,94.30
2022-12-19T05:01:54.984Z,94.40
2022-12-19T05:04:18.718Z,94.30
2022-12-19T05:06:42.014Z,94.40
2022-12-19T05:09:05.515Z,94.50
2022-12-19T05:11:28.832Z,94.50
2022-12-19T05:13:53.437Z,94.60
2022-12-19T05:16:17.209Z,94.70
2022-12-19T05:18:41.083Z,94.80
2022-12-19T05:21:04.973Z,94.70
2022-12-19T05:23:28.677Z,94.90
2022-12-19T05:25:52.396Z,94.90
2022-12-19T05:28:16.290Z,95.00
2022-12-19T05:30:41.105Z,95.00
2022-12-19T05:33:04.595Z,95.00
2022-12-19T05:35:28.120Z,95.10
2022-12-19T05:37:51.376Z,95.10
2022-12-19T05:40:14.637Z,95.20
2022-12-19T05:42:37.873Z,95.30
2022-12-19T05:45:01.088Z,95.30
2022-12-19T05:47:25.733Z,95.20
2022-12-19T05:49:48.983Z,95.40
2022-12-19T05:52:12.342Z,95.40
2022-12-19T05:54:35.811Z,95.50
2022-12-19T05:56:59.062Z,95.40
2022-12-19T05:59:23.024Z,95.40
2022-12-19T06:01:46.472Z,95.40
2022-12-19T06:04:11.240Z,95.40
2022-12-19T06:06:34.677Z,95.60
2022-12-19T06:08:59.812Z,95.50
2022-12-19T06:11:23.542Z,95.50
2022-12-19T06:13:46.771Z,95.50
2022-12-19T06:16:13.831Z,95.50
2022-12-19T06:18:41.579Z,95.50
2022-12-19T06:21:12.763Z,95.60
2022-12-19T06:23:37.956Z,95.50
2022-12-19T06:26:03.389Z,95.50
2022-12-19T06:28:27.784Z,95.50
2022-12-19T06:30:51.573Z,95.60
2022-12-19T06:33:14.931Z,95.50
2022-12-19T06:35:38.143Z,95.50
2022-12-19T06:38:02.789Z,95.50
2022-12-19T06:40:55.225Z,95.50
2022-12-19T06:43:18.502Z,95.50
2022-12-19T06:45:41.845Z,95.50
2022-12-19T06:48:05.281Z,95.50
2022-12-19T06:50:28.600Z,95.50
2022-12-19T06:52:52.191Z,95.50
2022-12-19T06:55:17.394Z,95.50
2022-12-19T06:57:45.990Z,95.50
2022-12-19T07:00:11.988Z,95.50
2022-12-19T07:02:35.905Z,95.50
2022-12-19T07:05:04.331Z,95.50
2022-12-19T07:07:28.617Z,95.50
2022-12-19T07:09:51.950Z,95.40
2022-12-19T07:12:16.560Z,95.40
2022-12-19T07:14:39.896Z,95.40
2022-12-19T07:17:03.948Z,95.50
2022-12-19T07:19:28.772Z,95.40
2022-12-19T07:21:52.075Z,95.50
2022-12-19T07:24:16.005Z,95.40
2022-12-19T07:26:39.614Z,95.30
2022-12-19T07:29:04.430Z,95.30
2022-12-19T07:31:27.876Z,95.30
2022-12-19T07:33:51.180Z,95.30
2022-12-19T07:36:14.456Z,95.40
2022-12-19T07:38:38.044Z,95.30
2022-12-19T07:41:02.580Z,95.40
2022-12-19T07:43:25.824Z,95.40
2022-12-19T07:45:55.954Z,95.40
2022-12-19T07:48:19.709Z,95.40
2022-12-19T07:50:43.007Z,95.30
2022-12-19T07:53:06.301Z,95.30
2022-12-19T07:55:30.238Z,95.40
2022-12-19T07:57:55.410Z,95.30
2022-12-19T08:00:19.561Z,95.40
2022-12-19T08:02:44.335Z,95.40
2022-12-19T08:05:09.040Z,95.40
2022-12-19T08:07:32.413Z,95.30
2022-12-19T08:09:55.877Z,95.30
2022-12-19T08:12:19.220Z,95.30
2022-12-19T08:14:42.411Z,95.10
2022-12-19T08:17:21.859Z,95.20
2022-12-19T08:19:47.112Z,95.20
2022-12-19T08:22:10.465Z,95.10
2022-12-19T08:24:34.468Z,95.00
2022-12-19T08:26:58.002Z,95.00
2022-12-19T08:29:21.306Z,95.00
2022-12-19T08:31:44.725Z,95.10
2022-12-19T08:34:08.058Z,95.10
2022-12-19T08:36:32.697Z,95.20
2022-12-19T08:38:56.010Z,95.20
2022-12-19T08:41:19.994Z,95.10
2022-12-19T08:43:43.955Z,95.10
2022-12-19T08:46:07.846Z,95.20
2022-12-19T08:48:32.631Z,95.10
2022-12-19T08:50:58.386Z,95.10
2022-12-19T08:53:26.446Z,95.10
2022-12-19T08:55:55.789Z,95.00
2022-12-19T08:58:19.095Z,95.00
2022-12-19T09:00:42.786Z,95.00
2022-12-19T09:03:09.299Z,94.90
2022-12-19T09:06:01.889Z,95.00
2022-12-19T09:08:17.936Z,94.90
2022-12-19T09:10:42.592Z,94.90
2022-12-19T09:13:06.314Z,94.80
2022-12-19T09:15:30.373Z,94.90
2022-12-19T09:17:53.581Z,94.90
2022-12-19T09:20:22.969Z,94.90
2022-12-19T09:22:46.794Z,94.90
2022-12-19T09:25:11.613Z,94.90
2022-12-19T09:28:09.350Z,94.90
2022-12-19T09:30:19.567Z,94.90
2022-12-19T09:32:43.045Z,95.00
2022-12-19T09:35:07.961Z,95.00
2022-12-19T09:37:31.139Z,95.00
2022-12-19T09:39:58.816Z,94.90
2022-12-19T09:42:59.326Z,94.90
2022-12-19T09:45:47.723Z,94.90
2022-12-19T09:48:23.576Z,94.90
2022-12-19T09:50:56.123Z,94.90
2022-12-19T09:53:38.140Z,94.90
2022-12-19T09:56:01.845Z,94.80
2022-12-19T09:58:35.815Z,94.80
2022-12-19T10:01:03.026Z,94.80
2022-12-19T10:03:30.476Z,94.90
2022-12-19T10:07:16.033Z,94.80
2022-12-19T10:09:57.765Z,94.80
2022-12-19T10:12:42.161Z,94.80
2022-12-19T10:14:56.638Z,94.80
2022-12-19T10:17:31.638Z,94.70
2022-12-19T10:20:14.985Z,94.70
2022-12-19T10:22:50.065Z,94.70
2022-12-19T10:25:29.941Z,94.70
2022-12-19T10:28:00.496Z,94.50
2022-12-19T10:30:26.718Z,94.40
2022-12-19T10:33:06.355Z,94.50
2022-12-19T10:35:37.530Z,94.40
2022-12-19T10:38:20.120Z,94.40
2022-12-19T10:40:47.306Z,94.40
2022-12-19T10:43:30.652Z,94.30
2022-12-19T10:46:03.260Z,94.40
2022-12-19T10:48:31.295Z,94.10
2022-12-19T10:50:54.772Z,94.00
2022-12-19T10:53:27.540Z,94.00
2022-12-19T10:55:52.490Z,94.10
2022-12-19T10:58:24.378Z,94.20
2022-12-19T11:01:00.881Z,94.20
2022-12-19T11:03:24.440Z,94.20
2022-12-19T11:05:57.965Z,94.20
2022-12-19T11:08:27.076Z,94.10
2022-12-19T11:12:42.923Z,94.10
2022-12-19T11:18:47.927Z,94.10
2022-12-19T11:22:21.285Z,94.00
2022-12-19T11:29:15.976Z,93.80
2022-12-19T11:29:38.651Z,93.10
2022-12-19T11:30:06.169Z,93.70
2022-12-19T11:30:47.997Z,93.00
2022-12-19T11:31:58.431Z,93.20
2022-12-19T11:33:20.904Z,93.10
2022-12-19T11:35:50.459Z,93.10
2022-12-19T11:38:17.212Z,93.10
2022-12-19T11:40:49.336Z,93.10
2022-12-19T11:46:08.223Z,93.00
2022-12-19T11:48:40.302Z,93.10
2022-12-19T11:51:18.117Z,93.00
2022-12-19T11:53:53.461Z,93.00
2022-12-19T11:56:20.543Z,92.80
2022-12-19T11:58:47.393Z,92.80
2022-12-19T12:01:18.567Z,92.70
2022-12-19T12:04:06.877Z,92.90
2022-12-19T12:06:34.533Z,92.70
2022-12-19T12:14:18.775Z,92.40
2022-12-19T12:17:50.561Z,92.50
2022-12-19T12:24:30.742Z,92.30
2022-12-19T12:31:16.967Z,92.00
2022-12-19T12:31:31.016Z,92.10
2022-12-19T12:31:46.810Z,92.10
2022-12-19T12:31:50.993Z,92.00
2022-12-19T12:35:16.297Z,91.40
2022-12-19T12:35:46.564Z,91.60
2022-12-19T12:38:43.080Z,90.90
2022-12-19T12:41:19.450Z,90.30
2022-12-19T12:44:00.128Z,90.70
2022-12-19T12:46:29.482Z,90.50
2022-12-19T12:48:58.053Z,90.50
2022-12-19T12:51:22.572Z,90.30
2022-12-19T12:53:49.446Z,90.40
2022-12-19T12:56:17.764Z,90.20
2022-12-19T12:59:06.842Z,90.20
2022-12-19T13:01:36.817Z,90.20
2022-12-19T13:04:06.880Z,90.30
2022-12-19T13:06:36.916Z,90.00
2022-12-19T13:09:07.293Z,89.70
2022-12-19T13:11:58.489Z,89.60
2022-12-19T13:14:46.838Z,89.70
2022-12-19T13:17:12.445Z,89.70
2022-12-19T13:19:37.473Z,89.50
2022-12-19T13:22:24.377Z,89.60
2022-12-19T13:24:51.430Z,89.50
2022-12-19T13:27:37.014Z,89.60
2022-12-19T13:30:20.000Z,89.10
2022-12-19T13:33:10.521Z,89.00
2022-12-19T13:39:46.282Z,89.20
2022-12-19T13:39:57.248Z,89.50
2022-12-19T13:41:26.839Z,89.60
2022-12-19T13:43:49.860Z,89.20
2022-12-19T13:46:35.981Z,89.20
2022-12-19T13:49:05.002Z,89.20
2022-12-19T13:51:28.320Z,89.10
2022-12-19T13:53:59.529Z,88.70
2022-12-19T13:56:25.158Z,89.10
2022-12-19T13:58:52.772Z,89.20
2022-12-19T14:01:22.499Z,89.10
2022-12-19T14:03:47.783Z,89.10
2022-12-19T14:06:20.656Z,88.90
2022-12-19T14:08:47.392Z,89.20
2022-12-19T14:11:40.279Z,89.00
2022-12-19T14:14:23.825Z,89.00
2022-12-19T14:16:51.770Z,88.70
2022-12-19T14:19:23.406Z,89.20
2022-12-19T14:22:09.747Z,89.10
2022-12-19T14:24:30.031Z,88.80
2022-12-19T14:28:18.783Z,88.80
2022-12-19T14:30:31.084Z,89.10
2022-12-19T14:33:40.145Z,88.90
2022-12-19T14:36:12.189Z,88.70
2022-12-19T14:39:20.655Z,88.70
2022-12-19T14:41:09.487Z,88.80
2022-12-19T14:43:56.509Z,89.00
2022-12-19T14:54:03.495Z,88.70
2022-12-19T14:54:18.274Z,88.60
2022-12-19T14:54:29.928Z,88.70
2022-12-19T14:56:08.240Z,89.00
2022-12-19T14:58:56.093Z,88.40
2022-12-19T15:01:10.279Z,88.60
2022-12-19T15:03:44.580Z,88.20
2022-12-19T15:07:05.297Z,88.00
2022-12-19T15:11:07.184Z,87.90
2022-12-19T15:14:50.605Z,87.60
2022-12-19T15:15:23.613Z,87.50
2022-12-19T15:17:49.084Z,87.50
2022-12-19T15:20:13.956Z,87.70
2022-12-19T15:22:37.240Z,87.60
2022-12-19T15:25:00.794Z,87.60
2022-12-19T15:27:24.134Z,87.20
2022-12-19T15:29:47.456Z,86.90
2022-12-19T15:32:15.739Z,87.20
2022-12-19T15:34:50.518Z,86.80
2022-12-19T15:37:17.805Z,87.20
2022-12-19T15:39:41.646Z,87.10
2022-12-19T15:42:06.067Z,87.20
2022-12-19T15:44:35.076Z,87.30
2022-12-19T15:46:58.512Z,87.70
2022-12-19T15:49:24.115Z,87.10
2022-12-19T15:51:47.849Z,86.80
2022-12-19T15:54:47.024Z,86.60
2022-12-19T15:56:57.516Z,86.70
2022-12-19T15:59:36.509Z,86.80
2022-12-19T16:02:02.278Z,86.60
2022-12-19T16:04:27.188Z,86.60
2022-12-19T16:06:50.722Z,86.90
2022-12-19T16:09:22.400Z,86.80
2022-12-19T16:11:45.687Z,87.30
2022-12-19T16:14:13.286Z,87.20
2022-12-19T16:16:36.579Z,86.70
2022-12-19T16:18:59.888Z,87.00
2022-12-19T16:21:33.636Z,87.10
2022-12-19T16:23:57.581Z,87.10
2022-12-19T16:26:31.973Z,87.20
2022-12-19T16:28:55.434Z,86.80
2022-12-19T16:31:26.336Z,86.50
2022-12-19T16:33:49.633Z,86.60
2022-12-19T16:36:13.341Z,86.80
2022-12-19T16:38:37.439Z,86.50
2022-12-19T16:41:01.654Z,86.80
2022-12-19T16:43:32.230Z,86.50
2022-12-19T16:46:00.599Z,86.70
2022-12-19T16:48:27.092Z,86.70
2022-12-19T16:50:51.863Z,86.90
2022-12-19T16:53:15.372Z,86.00
2022-12-19T16:55:38.885Z,86.10
2022-12-19T16:58:02.513Z,86.30
2022-12-19T17:00:27.583Z,86.50
2022-12-19T17:02:54.068Z,86.80
2022-12-19T17:05:24.107Z,86.10
2022-12-19T17:07:48.001Z,86.50
2022-12-19T17:10:12.273Z,86.60
2022-12-19T17:12:35.751Z,86.50
2022-12-19T17:15:00.128Z,85.90
2022-12-19T17:17:24.762Z,86.00
2022-12-19T17:19:48.124Z,86.00
2022-12-19T17:22:13.600Z,85.90
2022-12-19T17:24:37.024Z,86.10
2022-12-19T17:27:00.294Z,86.30
2022-12-19T17:29:23.529Z,86.60
2022-12-19T17:31:47.020Z,86.00
2022-12-19T17:34:19.129Z,86.40
2022-12-19T17:36:42.427Z,86.80
2022-12-19T17:39:18.818Z,86.60
2022-12-19T17:41:42.181Z,86.50
2022-12-19T17:44:05.935Z,86.20
2022-12-19T17:46:30.433Z,86.50
2022-12-19T17:48:55.164Z,86.40
2022-12-19T17:51:22.900Z,86.60
2022-12-19T17:53:46.385Z,86.70
2022-12-19T17:56:14.436Z,86.80
2022-12-19T17:58:37.706Z,86.80
2022-12-19T18:01:00.994Z,86.90
2022-12-19T18:03:26.950Z,86.80
2022-12-19T18:05:52.006Z,87.00
2022-12-19T18:08:26.712Z,86.70
2022-12-19T18:10:50.053Z,87.00
2022-12-19T18:13:13.272Z,87.10
2022-12-19T18:15:36.559Z,87.00
2022-12-19T18:18:00.077Z,87.20
2022-12-19T18:20:31.809Z,87.10
2022-12-19T18:22:57.020Z,87.10
2022-12-19T18:25:24.642Z,87.10
2022-12-19T18:27:48.158Z,87.00
2022-12-19T18:30:14.788Z,87.00
2022-12-19T18:32:38.521Z,87.00
2022-12-19T18:35:01.879Z,86.90
2022-12-19T18:37:25.537Z,87.10
2022-12-19T18:39:49.035Z,87.20
2022-12-19T18:42:21.516Z,87.00
2022-12-19T18:44:45.257Z,87.00
2022-12-19T18:47:21.463Z,86.90
2022-12-19T18:49:44.722Z,86.80
2022-12-19T18:52:11.304Z,87.10
2022-12-19T18:54:34.538Z,87.20
2022-12-19T18:56:58.113Z,87.30
2022-12-19T18:59:22.760Z,87.30
2022-12-19T19:01:47.809Z,87.30
2022-12-19T19:04:13.330Z,87.30
2022-12-19T19:06:38.298Z,87.00
2022-12-19T19:09:01.886Z,86.90
2022-12-19T19:11:46.473Z,87.00
2022-12-19T19:14:09.857Z,87.00
2022-12-19T19:16:34.631Z,86.90
2022-12-19T19:18:59.945Z,87.10
2022-12-19T19:21:26.369Z,87.20
2022-12-19T19:23:55.885Z,87.30
2022-12-19T19:26:19.133Z,87.40
2022-12-19T19:28:44.826Z,87.30
2022-12-19T19:31:16.170Z,87.10
2022-12-19T19:33:44.739Z,87.20
2022-12-19T19:36:12.847Z,87.20
2022-12-19T19:38:38.069Z,87.10
2022-12-19T19:41:02.079Z,87.00
2022-12-19T19:43:26.915Z,87.00
2022-12-19T19:45:52.033Z,87.20
2022-12-19T19:48:15.392Z,87.10
2022-12-19T19:50:40.020Z,87.20
2022-12-19T19:53:03.630Z,86.50
2022-12-19T19:55:27.665Z,86.50
2022-12-19T19:57:51.204Z,86.60
2022-12-19T20:00:15.637Z,86.80
2022-12-19T20:02:39.146Z,86.80
2022-12-19T20:05:02.891Z,86.70
2022-12-19T20:07:27.496Z,86.60
2022-12-19T20:09:50.721Z,86.20
2022-12-19T20:12:14.073Z,86.00
2022-12-19T20:14:37.307Z,86.10
2022-12-19T20:17:00.630Z,86.10
2022-12-19T20:19:24.051Z,86.20
2022-12-19T20:21:47.354Z,86.20
2022-12-19T20:24:12.732Z,85.90
2022-12-19T20:26:36.299Z,86.00
2022-12-19T20:28:59.570Z,85.90
2022-12-19T20:31:25.027Z,85.90
2022-12-19T20:33:49.202Z,86.00
2022-12-19T20:36:13.856Z,86.10
2022-12-19T20:38:37.650Z,85.90
2022-12-19T20:41:02.381Z,86.00
2022-12-19T20:43:26.052Z,86.10
2022-12-19T20:45:49.307Z,86.30
2022-12-19T20:48:12.762Z,86.20
2022-12-19T20:50:41.310Z,86.20
2022-12-19T20:53:06.258Z,86.00
2022-12-19T20:55:29.486Z,86.00
2022-12-19T20:57:54.194Z,86.20
2022-12-19T21:00:19.089Z,86.20
2022-12-19T21:03:24.952Z,86.20
2022-12-19T21:05:25.531Z,86.20
2022-12-19T21:07:48.814Z,86.10
2022-12-19T21:10:12.191Z,86.00
2022-12-19T21:12:35.483Z,86.10
2022-12-19T21:15:00.191Z,86.00
2022-12-19T21:17:23.814Z,86.20
2022-12-19T21:19:47.058Z,86.20
2022-12-19T21:22:10.942Z,86.30
2022-12-19T21:24:34.277Z,86.50
2022-12-19T21:26:58.395Z,86.70
2022-12-19T21:29:22.143Z,86.60
2022-12-19T21:31:46.892Z,86.60
2022-12-19T21:34:11.933Z,86.60
2022-12-19T21:36:35.254Z,86.60
2022-12-19T21:39:01.839Z,86.50
2022-12-19T21:41:25.772Z,86.70
2022-12-19T21:43:53.486Z,86.70
2022-12-19T21:46:18.168Z,86.80
2022-12-19T21:48:45.139Z,86.80
2022-12-19T21:51:09.095Z,86.80
2022-12-19T21:53:32.522Z,87.00
2022-12-19T21:56:07.063Z,87.10
2022-12-19T21:58:30.312Z,87.30
2022-12-19T22:00:53.690Z,87.20
2022-12-19T22:03:17.015Z,87.10
2022-12-19T22:05:41.829Z,87.00
2022-12-19T22:08:05.474Z,87.20
2022-12-19T22:10:28.911Z,87.20
2022-12-19T22:12:52.170Z,87.40
2022-12-19T22:15:15.603Z,87.40
2022-12-19T22:17:38.873Z,87.30
2022-12-19T22:20:02.141Z,87.30
2022-12-19T22:22:26.714Z,87.40
2022-12-19T22:24:49.892Z,87.50
2022-12-19T22:27:13.194Z,87.50
2022-12-19T22:29:36.831Z,87.00
2022-12-19T22:32:00.285Z,87.10
2022-12-19T22:34:23.802Z,87.00
2022-12-19T22:36:47.952Z,87.10
2022-12-19T22:39:16.398Z,87.30
2022-12-19T22:41:41.244Z,87.40
2022-12-19T22:44:05.601Z,87.40
2022-12-19T22:46:31.991Z,87.50
2022-12-19T22:48:58.336Z,87.50
2022-12-19T22:51:22.387Z,87.50
2022-12-19T22:53:46.359Z,87.80
2022-12-19T22:56:15.653Z,87.80
2022-12-19T22:58:41.319Z,87.90
2022-12-19T23:01:06.057Z,87.90
2022-12-19T23:03:29.473Z,87.90
2022-12-19T23:05:53.002Z,88.00
2022-12-19T23:08:16.303Z,88.00
2022-12-19T23:10:39.652Z,88.00
2022-12-19T23:13:04.292Z,88.00
2022-12-19T23:15:27.555Z,87.80
2022-12-19T23:17:50.860Z,87.90
2022-12-19T23:20:14.954Z,88.10
2022-12-19T23:22:38.543Z,88.30
2022-12-19T23:25:01.817Z,88.20
2022-12-19T23:27:25.083Z,88.30
2022-12-19T23:29:50.298Z,88.20
2022-12-19T23:32:13.633Z,88.30
2022-12-19T23:34:38.537Z,88.30
2022-12-19T23:37:11.142Z,88.40
2022-12-19T23:39:35.673Z,88.50
2022-12-19T23:41:59.017Z,88.70
2022-12-19T23:44:22.482Z,88.20
2022-12-19T23:46:47.113Z,88.30
2022-12-19T23:49:10.511Z,88.40
2022-12-19T23:51:33.909Z,88.40
2022-12-19T23:53:57.853Z,88.10
2022-12-19T23:56:24.455Z,88.30
2022-12-19T23:58:48.613Z,88.50
